sensor_id;sensor_type;location;lat;lon;timestamp;pressure;altitude;pressure_sealevel;temperature;humidity
60852;BME280;48553;50.766;2.900;2023-03-03T00:01:08;101679.00;;;4.74;70.84
60852;BME280;48553;50.766;2.900;2023-03-03T00:04:09;101669.25;;;4.68;70.97
60852;BME280;48553;50.766;2.900;2023-03-03T00:07:10;101674.38;;;4.70;71.11
60852;BME280;48553;50.766;2.900;2023-03-03T00:10:12;101682.81;;;4.68;71.15
60852;BME280;48553;50.766;2.900;2023-03-03T00:13:18;101684.44;;;4.69;71.09
60852;BME280;48553;50.766;2.900;2023-03-03T00:16:36;101678.75;;;4.66;71.06
60852;BME280;48553;50.766;2.900;2023-03-03T00:19:37;101684.16;;;4.60;71.21
60852;BME280;48553;50.766;2.900;2023-03-03T00:22:40;101674.41;;;4.59;71.14
60852;BME280;48553;50.766;2.900;2023-03-03T00:25:44;101685.78;;;4.56;71.17
60852;BME280;48553;50.766;2.900;2023-03-03T00:28:47;101678.19;;;4.53;71.48
60852;BME280;48553;50.766;2.900;2023-03-03T00:31:48;101680.09;;;4.53;71.29
60852;BME280;48553;50.766;2.900;2023-03-03T00:34:51;101682.00;;;4.52;71.38
60852;BME280;48553;50.766;2.900;2023-03-03T00:37:59;101691.22;;;4.51;71.15
60852;BME280;48553;50.766;2.900;2023-03-03T00:41:00;101698.28;;;4.47;71.34
60852;BME280;48553;50.766;2.900;2023-03-03T00:44:38;101696.66;;;4.46;71.25
60852;BME280;48553;50.766;2.900;2023-03-03T00:47:37;101698.28;;;4.42;71.52
60852;BME280;48553;50.766;2.900;2023-03-03T00:50:39;101702.09;;;4.41;71.31
60852;BME280;48553;50.766;2.900;2023-03-03T00:53:42;101699.63;;;4.39;71.53
60852;BME280;48553;50.766;2.900;2023-03-03T00:56:42;101706.97;;;4.39;71.44
60852;BME280;48553;50.766;2.900;2023-03-03T00:59:43;101702.06;;;4.36;71.47
60852;BME280;48553;50.766;2.900;2023-03-03T01:02:43;101706.97;;;4.34;71.51
60852;BME280;48553;50.766;2.900;2023-03-03T01:05:45;101706.94;;;4.29;71.75
60852;BME280;48553;50.766;2.900;2023-03-03T01:08:46;101701.53;;;4.29;71.96
60852;BME280;48553;50.766;2.900;2023-03-03T01:11:46;101708.59;;;4.30;71.74
60852;BME280;48553;50.766;2.900;2023-03-03T01:14:47;101719.97;;;4.27;71.88
60852;BME280;48553;50.766;2.900;2023-03-03T01:17:49;101717.25;;;4.27;71.92
60852;BME280;48553;50.766;2.900;2023-03-03T01:20:50;101720.50;;;4.24;71.82
60852;BME280;48553;50.766;2.900;2023-03-03T01:23:50;101717.53;;;4.25;71.77
60852;BME280;48553;50.766;2.900;2023-03-03T01:26:50;101728.09;;;4.22;72.10
60852;BME280;48553;50.766;2.900;2023-03-03T01:29:51;101722.41;;;4.18;72.23
60852;BME280;48553;50.766;2.900;2023-03-03T01:32:51;101717.81;;;4.18;72.15
60852;BME280;48553;50.766;2.900;2023-03-03T01:35:52;101722.13;;;4.14;72.36
60852;BME280;48553;50.766;2.900;2023-03-03T01:38:53;101711.00;;;4.11;72.51
60852;BME280;48553;50.766;2.900;2023-03-03T01:41:53;101711.81;;;4.11;72.29
60852;BME280;48553;50.766;2.900;2023-03-03T01:45:30;101720.78;;;4.12;72.10
60852;BME280;48553;50.766;2.900;2023-03-03T01:48:37;101716.69;;;4.09;72.35
60852;BME280;48553;50.766;2.900;2023-03-03T01:51:56;101714.78;;;4.05;72.39
60852;BME280;48553;50.766;2.900;2023-03-03T01:55:02;101719.38;;;4.04;72.54
60852;BME280;48553;50.766;2.900;2023-03-03T01:58:10;101706.91;;;4.03;72.31
60852;BME280;48553;50.766;2.900;2023-03-03T02:01:19;101708.53;;;4.04;72.33
60852;BME280;48553;50.766;2.900;2023-03-03T02:04:21;101712.88;;;4.00;72.54
60852;BME280;48553;50.766;2.900;2023-03-03T02:07:22;101703.91;;;4.00;72.52
60852;BME280;48553;50.766;2.900;2023-03-03T02:10:25;101707.47;;;4.00;72.40
60852;BME280;48553;50.766;2.900;2023-03-03T02:13:26;101700.94;;;3.96;72.30
60852;BME280;48553;50.766;2.900;2023-03-03T02:16:26;101699.84;;;3.92;72.48
60852;BME280;48553;50.766;2.900;2023-03-03T02:19:51;101702.81;;;3.90;72.59
60852;BME280;48553;50.766;2.900;2023-03-03T02:23:52;101694.66;;;3.90;72.47
60852;BME280;48553;50.766;2.900;2023-03-03T02:26:30;101705.25;;;3.87;72.53
60852;BME280;48553;50.766;2.900;2023-03-03T02:29:31;101712.03;;;3.84;72.46
60852;BME280;48553;50.766;2.900;2023-03-03T02:32:31;101710.13;;;3.85;72.48
60852;BME280;48553;50.766;2.900;2023-03-03T02:35:38;101726.66;;;3.83;72.69
60852;BME280;48553;50.766;2.900;2023-03-03T02:42:03;101722.03;;;3.79;73.16
60852;BME280;48553;50.766;2.900;2023-03-03T02:45:06;101715.25;;;3.81;72.93
60852;BME280;48553;50.766;2.900;2023-03-03T02:48:07;101729.34;;;3.78;72.79
60852;BME280;48553;50.766;2.900;2023-03-03T02:51:07;101718.22;;;3.74;72.91
60852;BME280;48553;50.766;2.900;2023-03-03T02:54:09;101719.31;;;3.73;73.17
60852;BME280;48553;50.766;2.900;2023-03-03T02:57:10;101719.56;;;3.72;72.98
60852;BME280;48553;50.766;2.900;2023-03-03T03:00:11;101712.53;;;3.76;73.10
60852;BME280;48553;50.766;2.900;2023-03-03T03:03:11;101719.00;;;3.70;72.92
60852;BME280;48553;50.766;2.900;2023-03-03T03:06:12;101719.81;;;3.65;73.35
60852;BME280;48553;50.766;2.900;2023-03-03T03:09:14;101724.97;;;3.67;73.32
60852;BME280;48553;50.766;2.900;2023-03-03T03:12:14;101720.63;;;3.66;73.28
60852;BME280;48553;50.766;2.900;2023-03-03T03:15:18;101722.78;;;3.64;73.24
60852;BME280;48553;50.766;2.900;2023-03-03T03:18:18;101720.91;;;3.64;73.26
60852;BME280;48553;50.766;2.900;2023-03-03T03:21:19;101726.00;;;3.61;73.32
60852;BME280;48553;50.766;2.900;2023-03-03T03:24:19;101728.16;;;3.59;73.10
60852;BME280;48553;50.766;2.900;2023-03-03T03:27:20;101731.41;;;3.55;73.44
60852;BME280;48553;50.766;2.900;2023-03-03T03:30:22;101735.78;;;3.57;73.64
60852;BME280;48553;50.766;2.900;2023-03-03T03:33:23;101729.81;;;3.54;73.46
60852;BME280;48553;50.766;2.900;2023-03-03T03:36:24;101737.09;;;3.54;73.35
60852;BME280;48553;50.766;2.900;2023-03-03T03:39:26;101730.06;;;3.53;73.68
60852;BME280;48553;50.766;2.900;2023-03-03T03:42:26;101731.13;;;3.52;73.30
60852;BME280;48553;50.766;2.900;2023-03-03T03:45:27;101720.56;;;3.50;73.05
60852;BME280;48553;50.766;2.900;2023-03-03T03:48:27;101725.97;;;3.50;73.66
60852;BME280;48553;50.766;2.900;2023-03-03T03:51:28;101723.25;;;3.45;73.29
60852;BME280;48553;50.766;2.900;2023-03-03T03:54:28;101717.84;;;3.45;73.17
60852;BME280;48553;50.766;2.900;2023-03-03T03:57:28;101717.00;;;3.45;73.17
60852;BME280;48553;50.766;2.900;2023-03-03T04:00:29;101726.22;;;3.44;73.33
60852;BME280;48553;50.766;2.900;2023-03-03T04:03:29;101717.53;;;3.42;73.40
60852;BME280;48553;50.766;2.900;2023-03-03T04:06:30;101722.41;;;3.40;73.86
60852;BME280;48553;50.766;2.900;2023-03-03T04:09:31;101717.78;;;3.40;73.78
60852;BME280;48553;50.766;2.900;2023-03-03T04:12:32;101729.97;;;3.38;73.58
60852;BME280;48553;50.766;2.900;2023-03-03T04:15:39;101727.00;;;3.34;73.65
60852;BME280;48553;50.766;2.900;2023-03-03T04:18:41;101727.53;;;3.36;73.51
60852;BME280;48553;50.766;2.900;2023-03-03T04:21:41;101728.63;;;3.35;73.72
60852;BME280;48553;50.766;2.900;2023-03-03T04:24:42;101727.25;;;3.32;73.65
60852;BME280;48553;50.766;2.900;2023-03-03T04:27:43;101723.44;;;3.33;73.41
60852;BME280;48553;50.766;2.900;2023-03-03T04:30:44;101728.31;;;3.31;73.61
60852;BME280;48553;50.766;2.900;2023-03-03T04:33:44;101722.38;;;3.29;73.72
60852;BME280;48553;50.766;2.900;2023-03-03T04:36:45;101724.50;;;3.27;73.62
60852;BME280;48553;50.766;2.900;2023-03-03T04:39:45;101726.91;;;3.24;73.74
60852;BME280;48553;50.766;2.900;2023-03-03T04:42:46;101737.50;;;3.25;73.64
60852;BME280;48553;50.766;2.900;2023-03-03T04:45:46;101733.44;;;3.23;73.72
60852;BME280;48553;50.766;2.900;2023-03-03T04:48:47;101728.25;;;3.21;74.03
60852;BME280;48553;50.766;2.900;2023-03-03T04:51:48;101736.38;;;3.21;73.91
60852;BME280;48553;50.766;2.900;2023-03-03T04:54:48;101741.50;;;3.18;73.71
60852;BME280;48553;50.766;2.900;2023-03-03T04:57:49;101736.09;;;3.18;74.00
60852;BME280;48553;50.766;2.900;2023-03-03T05:00:54;101736.63;;;3.14;73.88
60852;BME280;48553;50.766;2.900;2023-03-03T05:03:54;101736.06;;;3.12;74.17
60852;BME280;48553;50.766;2.900;2023-03-03T05:06:55;101743.94;;;3.14;74.32
60852;BME280;48553;50.766;2.900;2023-03-03T05:09:56;101746.34;;;3.10;74.03
60852;BME280;48553;50.766;2.900;2023-03-03T05:12:57;101743.91;;;3.09;74.39
60852;BME280;48553;50.766;2.900;2023-03-03T05:15:57;101743.91;;;3.09;74.38
60852;BME280;48553;50.766;2.900;2023-03-03T05:18:58;101744.72;;;3.09;74.16
60852;BME280;48553;50.766;2.900;2023-03-03T05:21:58;101744.41;;;3.06;74.13
60852;BME280;48553;50.766;2.900;2023-03-03T05:24:59;101743.34;;;3.07;74.40
60852;BME280;48553;50.766;2.900;2023-03-03T05:27:59;101747.66;;;3.03;74.32
60852;BME280;48553;50.766;2.900;2023-03-03T05:31:00;101749.00;;;3.00;74.22
60852;BME280;48553;50.766;2.900;2023-03-03T05:34:00;101749.00;;;3.00;74.55
60852;BME280;48553;50.766;2.900;2023-03-03T05:37:01;101751.69;;;3.00;74.10
60852;BME280;48553;50.766;2.900;2023-03-03T05:40:03;101743.56;;;3.00;74.45
60852;BME280;48553;50.766;2.900;2023-03-03T05:43:04;101754.09;;;2.97;74.58
60852;BME280;48553;50.766;2.900;2023-03-03T05:46:06;101748.44;;;2.98;74.52
60852;BME280;48553;50.766;2.900;2023-03-03T05:49:07;101744.84;;;2.92;74.61
60852;BME280;48553;50.766;2.900;2023-03-03T05:52:08;101752.47;;;2.96;74.49
60852;BME280;48553;50.766;2.900;2023-03-03T05:55:09;101756.53;;;2.93;74.50
60852;BME280;48553;50.766;2.900;2023-03-03T05:58:10;101753.81;;;2.93;74.64
60852;BME280;48553;50.766;2.900;2023-03-03T06:01:11;101749.22;;;2.93;74.78
60852;BME280;48553;50.766;2.900;2023-03-03T06:04:11;101758.41;;;2.92;74.30
60852;BME280;48553;50.766;2.900;2023-03-03T06:07:12;101761.63;;;2.89;74.54
60852;BME280;48553;50.766;2.900;2023-03-03T06:10:12;101762.44;;;2.90;74.70
60852;BME280;48553;50.766;2.900;2023-03-03T06:13:13;101752.38;;;2.85;75.13
60852;BME280;48553;50.766;2.900;2023-03-03T06:16:13;101771.91;;;2.87;74.84
60852;BME280;48553;50.766;2.900;2023-03-03T06:19:15;101771.34;;;2.85;74.60
60852;BME280;48553;50.766;2.900;2023-03-03T06:22:16;101773.78;;;2.87;74.52
60852;BME280;48553;50.766;2.900;2023-03-03T06:25:16;101776.19;;;2.83;74.71
60852;BME280;48553;50.766;2.900;2023-03-03T06:28:17;101772.66;;;2.83;74.70
60852;BME280;48553;50.766;2.900;2023-03-03T06:31:18;101778.09;;;2.83;74.65
60852;BME280;48553;50.766;2.900;2023-03-03T06:34:18;101776.16;;;2.78;74.90
60852;BME280;48553;50.766;2.900;2023-03-03T06:37:19;101783.19;;;2.79;74.85
60852;BME280;48553;50.766;2.900;2023-03-03T06:40:19;101789.72;;;2.83;74.77
60852;BME280;48553;50.766;2.900;2023-03-03T06:43:20;101796.19;;;2.77;75.40
60852;BME280;48553;50.766;2.900;2023-03-03T06:46:20;101795.66;;;2.80;75.21
60852;BME280;48553;50.766;2.900;2023-03-03T06:49:21;101802.13;;;2.79;75.15
60852;BME280;48553;50.766;2.900;2023-03-03T06:52:23;101810.00;;;2.81;74.96
60852;BME280;48553;50.766;2.900;2023-03-03T06:55:25;101811.66;;;2.82;74.97
60852;BME280;48553;50.766;2.900;2023-03-03T06:58:25;101812.50;;;2.87;74.92
60852;BME280;48553;50.766;2.900;2023-03-03T07:01:34;101819.56;;;2.88;75.13
60852;BME280;48553;50.766;2.900;2023-03-03T07:04:34;101822.59;;;2.97;75.03
60852;BME280;48553;50.766;2.900;2023-03-03T07:07:35;101827.75;;;2.99;74.63
60852;BME280;48553;50.766;2.900;2023-03-03T07:10:35;101826.19;;;3.03;74.80
60852;BME280;48553;50.766;2.900;2023-03-03T07:13:39;101836.00;;;3.09;75.04
60852;BME280;48553;50.766;2.900;2023-03-03T07:16:41;101830.59;;;3.14;74.70
60852;BME280;48553;50.766;2.900;2023-03-03T07:19:42;101828.19;;;3.18;74.78
60852;BME280;48553;50.766;2.900;2023-03-03T07:22:42;101836.94;;;3.25;74.82
60852;BME280;48553;50.766;2.900;2023-03-03T07:25:43;101837.50;;;3.32;74.64
60852;BME280;48553;50.766;2.900;2023-03-03T07:28:54;101841.38;;;3.41;74.60
60852;BME280;48553;50.766;2.900;2023-03-03T07:31:56;101847.41;;;3.53;74.15
60852;BME280;48553;50.766;2.900;2023-03-03T07:34:57;101844.22;;;3.62;74.30
60852;BME280;48553;50.766;2.900;2023-03-03T07:37:58;101841.53;;;3.67;74.60
60852;BME280;48553;50.766;2.900;2023-03-03T07:41:01;101856.75;;;3.73;74.41
60852;BME280;48553;50.766;2.900;2023-03-03T07:44:05;101854.91;;;3.84;74.37
60852;BME280;48553;50.766;2.900;2023-03-03T07:47:35;101865.78;;;3.89;74.46
60852;BME280;48553;50.766;2.900;2023-03-03T07:50:35;101860.97;;;4.01;74.00
60852;BME280;48553;50.766;2.900;2023-03-03T07:53:36;101866.97;;;4.08;74.22
60852;BME280;48553;50.766;2.900;2023-03-03T07:56:37;101866.47;;;4.16;74.02
60852;BME280;48553;50.766;2.900;2023-03-03T07:59:44;101875.72;;;4.26;73.95
60852;BME280;48553;50.766;2.900;2023-03-03T08:02:57;101881.19;;;4.36;73.62
60852;BME280;48553;50.766;2.900;2023-03-03T08:06:36;101885.84;;;4.46;73.60
60852;BME280;48553;50.766;2.900;2023-03-03T08:09:48;101889.38;;;4.51;73.61
60852;BME280;48553;50.766;2.900;2023-03-03T08:13:01;101893.22;;;4.60;73.50
60852;BME280;48553;50.766;2.900;2023-03-03T08:19:10;101888.66;;;4.81;73.07
60852;BME280;48553;50.766;2.900;2023-03-03T08:22:15;101898.72;;;4.91;72.79
60852;BME280;48553;50.766;2.900;2023-03-03T08:25:16;101896.00;;;4.91;72.76
60852;BME280;48553;50.766;2.900;2023-03-03T08:28:18;101895.50;;;5.05;72.66
60852;BME280;48553;50.766;2.900;2023-03-03T08:31:19;101905.53;;;5.09;72.53
60852;BME280;48553;50.766;2.900;2023-03-03T08:34:19;101908.00;;;5.21;72.46
60852;BME280;48553;50.766;2.900;2023-03-03T08:37:19;101901.72;;;5.15;72.60
60852;BME280;48553;50.766;2.900;2023-03-03T08:40:20;101911.78;;;5.20;72.87
60852;BME280;48553;50.766;2.900;2023-03-03T08:43:20;101908.25;;;5.19;72.67
60852;BME280;48553;50.766;2.900;2023-03-03T08:46:21;101912.91;;;5.29;72.74
60852;BME280;48553;50.766;2.900;2023-03-03T08:49:22;101912.59;;;5.36;72.64
60852;BME280;48553;50.766;2.900;2023-03-03T08:52:22;101915.06;;;5.42;72.49
60852;BME280;48553;50.766;2.900;2023-03-03T08:55:23;101919.44;;;5.59;72.60
60852;BME280;48553;50.766;2.900;2023-03-03T08:58:23;101909.59;;;5.78;71.79
60852;BME280;48553;50.766;2.900;2023-03-03T09:01:24;101909.34;;;5.95;71.85
60852;BME280;48553;50.766;2.900;2023-03-03T09:04:24;101916.09;;;6.08;71.56
60852;BME280;48553;50.766;2.900;2023-03-03T09:07:25;101924.78;;;6.10;71.27
60852;BME280;48553;50.766;2.900;2023-03-03T09:10:27;101921.78;;;6.17;71.39
60852;BME280;48553;50.766;2.900;2023-03-03T09:13:30;101917.19;;;6.07;71.49
60852;BME280;48553;50.766;2.900;2023-03-03T09:16:36;101917.69;;;6.19;71.35
60852;BME280;48553;50.766;2.900;2023-03-03T09:19:37;101921.75;;;6.22;71.50
60852;BME280;48553;50.766;2.900;2023-03-03T09:22:37;101932.16;;;6.04;71.62
60852;BME280;48553;50.766;2.900;2023-03-03T09:25:38;101925.66;;;5.95;71.99
60852;BME280;48553;50.766;2.900;2023-03-03T09:28:38;101929.44;;;5.89;71.79
60852;BME280;48553;50.766;2.900;2023-03-03T09:34:45;101942.22;;;5.94;72.06
60852;BME280;48553;50.766;2.900;2023-03-03T09:37:47;101927.00;;;6.03;71.89
60852;BME280;48553;50.766;2.900;2023-03-03T09:54:29;101945.19;;;6.83;70.49
60852;BME280;48553;50.766;2.900;2023-03-03T10:07:48;101951.38;;;6.99;71.25
60852;BME280;48553;50.766;2.900;2023-03-03T10:14:59;101951.69;;;6.92;71.26
60852;BME280;48553;50.766;2.900;2023-03-03T10:21:10;101954.72;;;6.90;70.89
60852;BME280;48553;50.766;2.900;2023-03-03T10:24:28;101945.44;;;6.92;70.62
60852;BME280;48553;50.766;2.900;2023-03-03T10:28:02;101960.81;;;7.17;70.62
60852;BME280;48553;50.766;2.900;2023-03-03T10:47:53;101960.78;;;7.22;69.81
60852;BME280;48553;50.766;2.900;2023-03-03T11:04:38;101974.78;;;7.44;69.68
60852;BME280;48553;50.766;2.900;2023-03-03T11:07:48;101968.81;;;7.42;69.90
60852;BME280;48553;50.766;2.900;2023-03-03T11:14:28;101966.00;;;7.52;70.49
60852;BME280;48553;50.766;2.900;2023-03-03T11:20:55;101967.31;;;7.89;69.11
60852;BME280;48553;50.766;2.900;2023-03-03T11:30:49;101975.84;;;8.12;69.27
60852;BME280;48553;50.766;2.900;2023-03-03T11:37:36;101970.41;;;8.36;68.81
60852;BME280;48553;50.766;2.900;2023-03-03T11:40:46;101973.97;;;8.61;67.76
60852;BME280;48553;50.766;2.900;2023-03-03T11:43:54;101979.75;;;8.78;67.88
60852;BME280;48553;50.766;2.900;2023-03-03T11:46:57;101974.97;;;8.89;67.51
60852;BME280;48553;50.766;2.900;2023-03-03T11:56:44;101963.69;;;9.33;66.73
60852;BME280;48553;50.766;2.900;2023-03-03T12:27:10;101950.19;;;10.02;64.83
60852;BME280;48553;50.766;2.900;2023-03-03T12:36:20;101941.09;;;10.35;64.75
60852;BME280;48553;50.766;2.900;2023-03-03T12:42:58;101921.91;;;10.49;63.82
60852;BME280;48553;50.766;2.900;2023-03-03T12:49:05;101932.25;;;10.65;64.29
60852;BME280;48553;50.766;2.900;2023-03-03T12:59:03;101923.25;;;10.87;64.37
60852;BME280;48553;50.766;2.900;2023-03-03T13:15:10;101919.25;;;11.07;63.28
60852;BME280;48553;50.766;2.900;2023-03-03T13:18:37;101907.66;;;11.11;62.83
60852;BME280;48553;50.766;2.900;2023-03-03T13:21:50;101908.34;;;11.16;62.98
60852;BME280;48553;50.766;2.900;2023-03-03T13:28:01;101901.66;;;11.08;62.70
60852;BME280;48553;50.766;2.900;2023-03-03T13:31:19;101906.09;;;11.18;63.15
60852;BME280;48553;50.766;2.900;2023-03-03T13:37:45;101903.66;;;11.17;63.26
60852;BME280;48553;50.766;2.900;2023-03-03T13:40:56;101899.97;;;11.21;62.79
60852;BME280;48553;50.766;2.900;2023-03-03T13:44:08;101912.75;;;11.26;62.98
60852;BME280;48553;50.766;2.900;2023-03-03T13:50:21;101895.94;;;11.19;62.64
60852;BME280;48553;50.766;2.900;2023-03-03T14:03:21;101889.38;;;11.28;62.95
60852;BME280;48553;50.766;2.900;2023-03-03T14:06:25;101892.56;;;11.22;62.91
60852;BME280;48553;50.766;2.900;2023-03-03T14:13:03;101896.66;;;11.33;62.70
60852;BME280;48553;50.766;2.900;2023-03-03T14:16:20;101900.41;;;11.37;62.73
60852;BME280;48553;50.766;2.900;2023-03-03T14:25:55;101883.84;;;11.20;62.56
60852;BME280;48553;50.766;2.900;2023-03-03T14:29:15;101879.84;;;11.26;63.17
60852;BME280;48553;50.766;2.900;2023-03-03T14:32:26;101885.94;;;11.23;63.30
60852;BME280;48553;50.766;2.900;2023-03-03T14:35:35;101872.44;;;11.04;62.95
60852;BME280;48553;50.766;2.900;2023-03-03T14:38:39;101877.41;;;11.02;62.64
60852;BME280;48553;50.766;2.900;2023-03-03T14:41:41;101872.03;;;10.97;63.03
60852;BME280;48553;50.766;2.900;2023-03-03T14:47:45;101871.81;;;10.71;63.03
60852;BME280;48553;50.766;2.900;2023-03-03T14:50:57;101880.88;;;10.57;63.24
60852;BME280;48553;50.766;2.900;2023-03-03T14:53:59;101873.41;;;10.49;63.91
60852;BME280;48553;50.766;2.900;2023-03-03T14:57:11;101879.47;;;10.46;63.12
60852;BME280;48553;50.766;2.900;2023-03-03T15:06:30;101880.50;;;10.50;63.21
60852;BME280;48553;50.766;2.900;2023-03-03T15:09:39;101879.31;;;10.42;63.44
60852;BME280;48553;50.766;2.900;2023-03-03T15:12:47;101875.44;;;10.30;63.26
60852;BME280;48553;50.766;2.900;2023-03-03T15:15:59;101873.81;;;10.29;62.46
60852;BME280;48553;50.766;2.900;2023-03-03T15:22:21;101873.31;;;10.27;62.95
60852;BME280;48553;50.766;2.900;2023-03-03T15:25:48;101863.03;;;10.18;63.26
60852;BME280;48553;50.766;2.900;2023-03-03T15:35:43;101867.50;;;9.87;62.53
60852;BME280;48553;50.766;2.900;2023-03-03T15:38:54;101862.66;;;9.83;63.34
60852;BME280;48553;50.766;2.900;2023-03-03T15:42:06;101859.69;;;9.80;63.49
60852;BME280;48553;50.766;2.900;2023-03-03T15:45:30;101873.78;;;9.73;63.19
60852;BME280;48553;50.766;2.900;2023-03-03T15:55:19;101868.28;;;9.59;63.61
60852;BME280;48553;50.766;2.900;2023-03-03T16:01:57;101868.47;;;9.49;63.68
60852;BME280;48553;50.766;2.900;2023-03-03T16:15:43;101866.38;;;9.27;64.05
60852;BME280;48553;50.766;2.900;2023-03-03T16:18:54;101868.59;;;9.25;64.29
60852;BME280;48553;50.766;2.900;2023-03-03T16:32:27;101868.34;;;9.08;65.13
60852;BME280;48553;50.766;2.900;2023-03-03T16:35:36;101865.41;;;9.04;65.13
60852;BME280;48553;50.766;2.900;2023-03-03T16:38:40;101871.53;;;8.96;65.51
60852;BME280;48553;50.766;2.900;2023-03-03T16:41:54;101872.41;;;8.91;65.57
60852;BME280;48553;50.766;2.900;2023-03-03T16:52:22;101878.34;;;8.80;65.76
60852;BME280;48553;50.766;2.900;2023-03-03T16:55:12;101885.50;;;8.75;65.88
60852;BME280;48553;50.766;2.900;2023-03-03T17:04:55;101898.56;;;8.60;66.48
60852;BME280;48553;50.766;2.900;2023-03-03T17:18:21;101911.84;;;8.47;66.48
60852;BME280;48553;50.766;2.900;2023-03-03T17:21:35;101915.16;;;8.44;66.53
60852;BME280;48553;50.766;2.900;2023-03-03T17:24:57;101923.06;;;8.46;66.83
60852;BME280;48553;50.766;2.900;2023-03-03T17:41:57;101932.56;;;8.24;67.36
60852;BME280;48553;50.766;2.900;2023-03-03T17:45:08;101942.16;;;8.22;67.02
60852;BME280;48553;50.766;2.900;2023-03-03T17:58:41;101952.38;;;8.11;67.46
60852;BME280;48553;50.766;2.900;2023-03-03T18:05:57;101958.41;;;8.08;67.24
60852;BME280;48553;50.766;2.900;2023-03-03T18:12:03;101955.00;;;7.97;67.85
60852;BME280;48553;50.766;2.900;2023-03-03T18:25:03;101968.19;;;7.85;68.05
60852;BME280;48553;50.766;2.900;2023-03-03T18:31:22;101969.63;;;7.77;67.99
60852;BME280;48553;50.766;2.900;2023-03-03T18:34:29;101983.28;;;7.77;67.74
60852;BME280;48553;50.766;2.900;2023-03-03T18:37:37;101976.47;;;7.74;67.70
60852;BME280;48553;50.766;2.900;2023-03-03T18:40:52;101984.13;;;7.72;68.06
60852;BME280;48553;50.766;2.900;2023-03-03T18:44:23;101989.63;;;7.67;68.37
60852;BME280;48553;50.766;2.900;2023-03-03T18:47:56;101986.38;;;7.65;68.34
60852;BME280;48553;50.766;2.900;2023-03-03T18:50:58;101981.22;;;7.64;67.96
60852;BME280;48553;50.766;2.900;2023-03-03T18:54:00;101984.75;;;7.64;67.93
60852;BME280;48553;50.766;2.900;2023-03-03T19:00:28;101992.19;;;7.53;68.18
60852;BME280;48553;50.766;2.900;2023-03-03T19:12:59;102001.00;;;7.45;68.08
60852;BME280;48553;50.766;2.900;2023-03-03T19:16:01;102008.59;;;7.48;67.87
60852;BME280;48553;50.766;2.900;2023-03-03T19:19:29;102003.19;;;7.43;68.00
60852;BME280;48553;50.766;2.900;2023-03-03T19:22:29;102003.72;;;7.40;67.93
60852;BME280;48553;50.766;2.900;2023-03-03T19:25:30;102009.72;;;7.42;68.04
60852;BME280;48553;50.766;2.900;2023-03-03T19:28:49;102009.75;;;7.37;68.16
60852;BME280;48553;50.766;2.900;2023-03-03T19:45:02;102008.19;;;7.26;68.22
60852;BME280;48553;50.766;2.900;2023-03-03T19:48:11;102008.78;;;7.23;68.37
60852;BME280;48553;50.766;2.900;2023-03-03T19:51:25;102013.69;;;7.21;68.56
60852;BME280;48553;50.766;2.900;2023-03-03T20:01:04;102021.38;;;7.14;68.17
60852;BME280;48553;50.766;2.900;2023-03-03T20:07:38;102027.66;;;7.09;68.08
60852;BME280;48553;50.766;2.900;2023-03-03T20:10:52;102028.19;;;7.06;67.79
60852;BME280;48553;50.766;2.900;2023-03-03T20:14:03;102040.78;;;7.02;68.05
60852;BME280;48553;50.766;2.900;2023-03-03T20:21:03;102041.06;;;7.00;67.50
60852;BME280;48553;50.766;2.900;2023-03-03T20:27:02;102044.84;;;6.99;67.63
60852;BME280;48553;50.766;2.900;2023-03-03T20:30:20;102045.97;;;6.98;67.69
60852;BME280;48553;50.766;2.900;2023-03-03T20:33:47;102047.59;;;6.94;67.61
60852;BME280;48553;50.766;2.900;2023-03-03T20:37:01;102056.63;;;6.89;67.77
60852;BME280;48553;50.766;2.900;2023-03-03T20:50:20;102058.81;;;6.87;67.54
60852;BME280;48553;50.766;2.900;2023-03-03T21:03:36;102067.03;;;6.77;67.77
60852;BME280;48553;50.766;2.900;2023-03-03T21:06:37;102067.28;;;6.76;67.97
60852;BME280;48553;50.766;2.900;2023-03-03T21:09:40;102069.75;;;6.72;68.35
60852;BME280;48553;50.766;2.900;2023-03-03T21:12:40;102070.84;;;6.71;68.19
60852;BME280;48553;50.766;2.900;2023-03-03T21:15:40;102062.94;;;6.69;68.35
60852;BME280;48553;50.766;2.900;2023-03-03T21:18:41;102065.41;;;6.71;68.26
60852;BME280;48553;50.766;2.900;2023-03-03T21:21:47;102069.50;;;6.68;68.19
60852;BME280;48553;50.766;2.900;2023-03-03T21:24:56;102068.69;;;6.68;68.54
60852;BME280;48553;50.766;2.900;2023-03-03T21:28:21;102059.69;;;6.67;68.50
60852;BME280;48553;50.766;2.900;2023-03-03T21:31:22;102063.50;;;6.72;68.42
60852;BME280;48553;50.766;2.900;2023-03-03T21:34:25;102070.59;;;6.67;68.19
60852;BME280;48553;50.766;2.900;2023-03-03T21:37:53;102070.06;;;6.65;68.64
60852;BME280;48553;50.766;2.900;2023-03-03T21:41:01;102077.69;;;6.63;68.25
60852;BME280;48553;50.766;2.900;2023-03-03T21:44:28;102078.25;;;6.65;68.42
60852;BME280;48553;50.766;2.900;2023-03-03T21:47:30;102074.97;;;6.63;68.28
60852;BME280;48553;50.766;2.900;2023-03-03T21:50:30;102072.50;;;6.62;68.52
60852;BME280;48553;50.766;2.900;2023-03-03T21:53:31;102066.25;;;6.61;68.77
60852;BME280;48553;50.766;2.900;2023-03-03T21:56:32;102070.63;;;6.57;68.70
60852;BME280;48553;50.766;2.900;2023-03-03T21:59:34;102065.19;;;6.57;68.53
60852;BME280;48553;50.766;2.900;2023-03-03T22:02:36;102071.44;;;6.58;68.85
60852;BME280;48553;50.766;2.900;2023-03-03T22:05:36;102069.50;;;6.58;68.84
60852;BME280;48553;50.766;2.900;2023-03-03T22:08:37;102071.19;;;6.54;69.10
60852;BME280;48553;50.766;2.900;2023-03-03T22:11:37;102066.56;;;6.50;68.91
60852;BME280;48553;50.766;2.900;2023-03-03T22:14:38;102064.91;;;6.54;68.95
60852;BME280;48553;50.766;2.900;2023-03-03T22:17:39;102070.63;;;6.52;69.13
60852;BME280;48553;50.766;2.900;2023-03-03T22:20:40;102067.63;;;6.48;69.00
60852;BME280;48553;50.766;2.900;2023-03-03T22:23:40;102077.16;;;6.51;69.20
60852;BME280;48553;50.766;2.900;2023-03-03T22:26:41;102071.16;;;6.49;69.19